sensor_id;sensor_type;location;lat;lon;timestamp;P1;P2;P0
53698;PMS7003;39591;53.952;27.612;2022-12-22T00:00:11;35.7;28.1;19.5
53698;PMS7003;39591;53.952;27.612;2022-12-22T00:04:31;32.1;27.1;19.6
53698;PMS7003;39591;53.952;27.612;2022-12-22T00:09:29;33.7;28;18.8
53698;PMS7003;39591;53.952;27.612;2022-12-22T00:15:09;32.6;27.3;18.9
53698;PMS7003;39591;53.952;27.612;2022-12-22T00:19:43;31.4;26.6;18.9
53698;PMS7003;39591;53.952;27.612;2022-12-22T00:24:35;31.3;25.9;18
53698;PMS7003;39591;53.952;27.612;2022-12-22T00:29:41;24;19.8;14.6
53698;PMS7003;39591;53.952;27.612;2022-12-22T00:34:53;30.3;25.6;17.8
53698;PMS7003;39591;53.952;27.612;2022-12-22T00:39:53;29.3;24.8;17.9
53698;PMS7003;39591;53.952;27.612;2022-12-22T00:45:05;28.1;23.9;17.1
53698;PMS7003;39591;53.952;27.612;2022-12-22T00:50:06;28;24.1;16.4
53698;PMS7003;39591;53.952;27.612;2022-12-22T00:54:43;28.8;24.8;17.6
53698;PMS7003;39591;53.952;27.612;2022-12-22T00:59:41;28.3;23.6;16.7
53698;PMS7003;39591;53.952;27.612;2022-12-22T01:05:05;29.7;24.9;17.6
53698;PMS7003;39591;53.952;27.612;2022-12-22T01:09:55;30.2;24.4;16.6
53698;PMS7003;39591;53.952;27.612;2022-12-22T01:14:23;29.8;23.8;16.9
53698;PMS7003;39591;53.952;27.612;2022-12-22T01:20:01;27.6;22.6;15.9
53698;PMS7003;39591;53.952;27.612;2022-12-22T01:24:35;28.6;24;17.2
53698;PMS7003;39591;53.952;27.612;2022-12-22T01:30:01;29.2;24.6;17.9
53698;PMS7003;39591;53.952;27.612;2022-12-22T01:35:11;28.1;22.8;16.5
53698;PMS7003;39591;53.952;27.612;2022-12-22T01:40:12;27.9;22.6;16.2
53698;PMS7003;39591;53.952;27.612;2022-12-22T01:44:43;27.9;22.6;16.2
53698;PMS7003;39591;53.952;27.612;2022-12-22T01:49:25;27.6;24;17.9
53698;PMS7003;39591;53.952;27.612;2022-12-22T01:55:12;25.6;21.4;15.3
53698;PMS7003;39591;53.952;27.612;2022-12-22T01:59:47;25.6;21.4;15.3
53698;PMS7003;39591;53.952;27.612;2022-12-22T02:04:34;24.6;20.1;15.1
53698;PMS7003;39591;53.952;27.612;2022-12-22T02:09:48;26.2;22.4;16.4
53698;PMS7003;39591;53.952;27.612;2022-12-22T02:15:03;24.8;20.6;14.1
53698;PMS7003;39591;53.952;27.612;2022-12-22T02:20:09;28.8;23.5;16.8
53698;PMS7003;39591;53.952;27.612;2022-12-22T02:25:02;25.2;22.3;16.5
53698;PMS7003;39591;53.952;27.612;2022-12-22T02:29:24;26.4;23.1;16.6
53698;PMS7003;39591;53.952;27.612;2022-12-22T02:34:35;26.4;21.6;15.8
53698;PMS7003;39591;53.952;27.612;2022-12-22T02:39:35;25.7;21.9;14.9
53698;PMS7003;39591;53.952;27.612;2022-12-22T02:45:11;27.2;22.5;15.9
53698;PMS7003;39591;53.952;27.612;2022-12-22T02:50:01;21.1;18.4;13.2
53698;PMS7003;39591;53.952;27.612;2022-12-22T02:54:23;25.4;22;16.4
53698;PMS7003;39591;53.952;27.612;2022-12-22T02:59:33;23.9;20.8;15.3
53698;PMS7003;39591;53.952;27.612;2022-12-22T03:04:57;24.1;20.6;14.3
53698;PMS7003;39591;53.952;27.612;2022-12-22T03:09:55;24.2;19.1;13
53698;PMS7003;39591;53.952;27.612;2022-12-22T03:15:09;24.1;21.1;14.8
53698;PMS7003;39591;53.952;27.612;2022-12-22T03:20:09;25.1;20.2;14.4
53698;PMS7003;39591;53.952;27.612;2022-12-22T03:24:33;23.5;18.9;14
53698;PMS7003;39591;53.952;27.612;2022-12-22T03:29:23;24.2;20.9;15.7
53698;PMS7003;39591;53.952;27.612;2022-12-22T03:35:11;23.6;19.9;14.7
53698;PMS7003;39591;53.952;27.612;2022-12-22T03:39:55;23.6;19.9;14.7
53698;PMS7003;39591;53.952;27.612;2022-12-22T03:44:23;24.1;20.4;15
53698;PMS7003;39591;53.952;27.612;2022-12-22T03:49:25;26.5;21;15.3
53698;PMS7003;39591;53.952;27.612;2022-12-22T03:54:59;25;20.8;15.4
53698;PMS7003;39591;53.952;27.612;2022-12-22T04:00:13;25;20.8;15.3
53698;PMS7003;39591;53.952;27.612;2022-12-22T04:04:35;25;20.8;15.3
53698;PMS7003;39591;53.952;27.612;2022-12-22T04:09:31;25.4;21.2;15.3
53698;PMS7003;39591;53.952;27.612;2022-12-22T04:14:45;27.3;21.6;16
53698;PMS7003;39591;53.952;27.612;2022-12-22T04:19:35;24.7;19;13.8
53698;PMS7003;39591;53.952;27.612;2022-12-22T04:25:11;27;23;16.8
53698;PMS7003;39591;53.952;27.612;2022-12-22T04:29:47;27;23;16.8
53698;PMS7003;39591;53.952;27.612;2022-12-22T04:34:35;27.6;23.2;16.5
53698;PMS7003;39591;53.952;27.612;2022-12-22T04:39:47;26.1;22.4;15.7
53698;PMS7003;39591;53.952;27.612;2022-12-22T04:44:49;25.9;21.8;15.5
53698;PMS7003;39591;53.952;27.612;2022-12-22T04:50:07;28.8;24.2;16.3
53698;PMS7003;39591;53.952;27.612;2022-12-22T04:54:23;27.4;23;15
53698;PMS7003;39591;53.952;27.612;2022-12-22T04:59:49;28.7;24.2;16.9
53698;PMS7003;39591;53.952;27.612;2022-12-22T05:04:45;29.3;24.3;17.4
53698;PMS7003;39591;53.952;27.612;2022-12-22T05:09:33;31.1;25.9;18
53698;PMS7003;39591;53.952;27.612;2022-12-22T05:15:07;34.7;26.1;18.2
53698;PMS7003;39591;53.952;27.612;2022-12-22T05:19:33;27.6;24.7;17.9
53698;PMS7003;39591;53.952;27.612;2022-12-22T05:24:23;30.2;25.1;17.7
53698;PMS7003;39591;53.952;27.612;2022-12-22T05:29:57;28.8;24.6;17.2
53698;PMS7003;39591;53.952;27.612;2022-12-22T05:34:57;33.4;26.3;18.2
53698;PMS7003;39591;53.952;27.612;2022-12-22T05:40:08;30.3;24.2;14.5
53698;PMS7003;39591;53.952;27.612;2022-12-22T05:44:23;32.6;27;18.5
53698;PMS7003;39591;53.952;27.612;2022-12-22T05:49:47;37.5;29.8;20.6
53698;PMS7003;39591;53.952;27.612;2022-12-22T05:54:33;35.7;29.4;19.6
53698;PMS7003;39591;53.952;27.612;2022-12-22T05:59:23;36.3;30.1;20.3
53698;PMS7003;39591;53.952;27.612;2022-12-22T06:04:43;33.2;25.7;16.6
53698;PMS7003;39591;53.952;27.612;2022-12-22T06:09:45;35.7;29.1;19.1
53698;PMS7003;39591;53.952;27.612;2022-12-22T06:14:37;37.5;30;20.7
53698;PMS7003;39591;53.952;27.612;2022-12-22T06:19:57;33.4;27.5;20
53698;PMS7003;39591;53.952;27.612;2022-12-22T06:24:47;38.7;30.7;19.7
53698;PMS7003;39591;53.952;27.612;2022-12-22T06:30:09;34.2;27.9;16.7
53698;PMS7003;39591;53.952;27.612;2022-12-22T06:34:43;36.4;30.4;21.2
53698;PMS7003;39591;53.952;27.612;2022-12-22T06:39:43;39;32.3;21.2
53698;PMS7003;39591;53.952;27.612;2022-12-22T06:44:33;33.2;27.3;18.7
53698;PMS7003;39591;53.952;27.612;2022-12-22T06:49:23;31;26.3;18.2
53698;PMS7003;39591;53.952;27.612;2022-12-22T06:55:09;31.4;26.7;17.4
53698;PMS7003;39591;53.952;27.612;2022-12-22T06:59:47;36.4;29.2;19.1
53698;PMS7003;39591;53.952;27.612;2022-12-22T07:04:23;32.7;25.8;17.2
53698;PMS7003;39591;53.952;27.612;2022-12-22T07:09:55;36.2;28.3;19
53698;PMS7003;39591;53.952;27.612;2022-12-22T07:14:59;38.7;31.3;20.4
53698;PMS7003;39591;53.952;27.612;2022-12-22T07:20:10;37.2;29.8;19.9
53698;PMS7003;39591;53.952;27.612;2022-12-22T07:24:31;36.1;30.7;21.3
53698;PMS7003;39591;53.952;27.612;2022-12-22T07:29:47;43;33.9;21.2
53698;PMS7003;39591;53.952;27.612;2022-12-22T07:34:33;39.5;32.8;21.2
53698;PMS7003;39591;53.952;27.612;2022-12-22T07:39:33;36.6;30.2;19.4
53698;PMS7003;39591;53.952;27.612;2022-12-22T07:45:09;35.6;29.6;19.5
53698;PMS7003;39591;53.952;27.612;2022-12-22T07:49:45;38.4;32.3;21.2
53698;PMS7003;39591;53.952;27.612;2022-12-22T07:54:46;40;32.7;21.4
53698;PMS7003;39591;53.952;27.612;2022-12-22T07:59:57;38.3;31.8;20.4
53698;PMS7003;39591;53.952;27.612;2022-12-22T08:04:57;39.3;32.6;21.2
53698;PMS7003;39591;53.952;27.612;2022-12-22T08:10:10;35.2;29.4;18.9
53698;PMS7003;39591;53.952;27.612;2022-12-22T08:14:23;39.4;31.6;20.3
53698;PMS7003;39591;53.952;27.612;2022-12-22T08:19:55;40;33.7;21.8
53698;PMS7003;39591;53.952;27.612;2022-12-22T08:24:43;41.9;34.1;21.3
53698;PMS7003;39591;53.952;27.612;2022-12-22T08:29:34;38;32.1;21
53698;PMS7003;39591;53.952;27.612;2022-12-22T08:35:09;42.9;34.4;22.1
53698;PMS7003;39591;53.952;27.612;2022-12-22T08:39:24;37.7;29.4;18.3
53698;PMS7003;39591;53.952;27.612;2022-12-22T08:44:45;41.3;34.2;22.4
53698;PMS7003;39591;53.952;27.612;2022-12-22T08:49:57;43.2;35;23
53698;PMS7003;39591;53.952;27.612;2022-12-22T08:54:49;43.4;32.5;20.4
53698;PMS7003;39591;53.952;27.612;2022-12-22T08:59:53;44.5;35.9;23.6
53698;PMS7003;39591;53.952;27.612;2022-12-22T09:04:33;40.6;32.9;22
53698;PMS7003;39591;53.952;27.612;2022-12-22T09:09:55;42;35.1;23.1
53698;PMS7003;39591;53.952;27.612;2022-12-22T09:14:23;43.3;34.2;21.8
53698;PMS7003;39591;53.952;27.612;2022-12-22T09:19:45;40.6;32.5;20.9
53698;PMS7003;39591;53.952;27.612;2022-12-22T09:25:09;43.9;33.8;22.9
53698;PMS7003;39591;53.952;27.612;2022-12-22T09:29:47;38.3;30.4;18.7
53698;PMS7003;39591;53.952;27.612;2022-12-22T09:34:47;39.1;29.9;18.4
53698;PMS7003;39591;53.952;27.612;2022-12-22T09:39:55;43.2;33.7;21.2
53698;PMS7003;39591;53.952;27.612;2022-12-22T09:45:10;41.1;32.8;22.6
53698;PMS7003;39591;53.952;27.612;2022-12-22T09:50:02;42.5;35;23.4
53698;PMS7003;39591;53.952;27.612;2022-12-22T09:54:33;41.9;33.5;21.7
53698;PMS7003;39591;53.952;27.612;2022-12-22T09:59:55;42.3;33.8;22.5
53698;PMS7003;39591;53.952;27.612;2022-12-22T10:04:28;45.4;35.2;23
53698;PMS7003;39591;53.952;27.612;2022-12-22T10:09:47;42.8;34.1;22.2
53698;PMS7003;39591;53.952;27.612;2022-12-22T10:15:09;43.5;34.2;22.2
53698;PMS7003;39591;53.952;27.612;2022-12-22T10:19:46;43.9;33.9;22
53698;PMS7003;39591;53.952;27.612;2022-12-22T10:24:45;40.6;32.8;20.7
53698;PMS7003;39591;53.952;27.612;2022-12-22T10:29:43;41;32.9;21.2
53698;PMS7003;39591;53.952;27.612;2022-12-22T10:35:00;42.6;34.3;22.7
53698;PMS7003;39591;53.952;27.612;2022-12-22T10:40:12;38.5;32.3;21.6
53698;PMS7003;39591;53.952;27.612;2022-12-22T10:44:34;44;34;22.2
53698;PMS7003;39591;53.952;27.612;2022-12-22T10:50:08;44.1;34.2;22.8
53698;PMS7003;39591;53.952;27.612;2022-12-22T10:54:33;44.2;35.1;22.5
53698;PMS7003;39591;53.952;27.612;2022-12-22T10:59:34;41.6;33.2;21.9
53698;PMS7003;39591;53.952;27.612;2022-12-22T11:05:08;43.5;34.7;21.8
53698;PMS7003;39591;53.952;27.612;2022-12-22T11:09:59;41;33.1;22.1
53698;PMS7003;39591;53.952;27.612;2022-12-22T11:14:43;42.3;33.7;22.3
53698;PMS7003;39591;53.952;27.612;2022-12-22T11:19:57;42.7;33.7;22.4
53698;PMS7003;39591;53.952;27.612;2022-12-22T11:24:47;38.3;32.7;21.7
53698;PMS7003;39591;53.952;27.612;2022-12-22T11:30:08;38.6;31.5;21
53698;PMS7003;39591;53.952;27.612;2022-12-22T11:35:10;39.3;31.9;21.6
53698;PMS7003;39591;53.952;27.612;2022-12-22T11:39:57;39.4;30.4;20.5
53698;PMS7003;39591;53.952;27.612;2022-12-22T11:44:46;38.7;30.8;21.3
53698;PMS7003;39591;53.952;27.612;2022-12-22T11:49:37;41.5;33.9;22.3
53698;PMS7003;39591;53.952;27.612;2022-12-22T11:55:10;38.6;32.7;22.5
53698;PMS7003;39591;53.952;27.612;2022-12-22T11:59:48;38.9;32.2;21.5
53698;PMS7003;39591;53.952;27.612;2022-12-22T12:04:53;43;34.2;23.1
53698;PMS7003;39591;53.952;27.612;2022-12-22T12:10:12;50.3;39.5;26.1
53698;PMS7003;39591;53.952;27.612;2022-12-22T12:15:03;42.5;34.5;22.5
53698;PMS7003;39591;53.952;27.612;2022-12-22T12:20:14;44.8;34.8;22.6
53698;PMS7003;39591;53.952;27.612;2022-12-22T12:24:39;40;31.8;21.4
53698;PMS7003;39591;53.952;27.612;2022-12-22T12:30:10;44.6;35.1;22.3
53698;PMS7003;39591;53.952;27.612;2022-12-22T12:34:51;40.4;31.7;19.9
53698;PMS7003;39591;53.952;27.612;2022-12-22T12:39:58;42.1;33.5;21.8
53698;PMS7003;39591;53.952;27.612;2022-12-22T12:44:35;40.3;33.4;22.1
53698;PMS7003;39591;53.952;27.612;2022-12-22T12:49:59;40;31.5;21.5
53698;PMS7003;39591;53.952;27.612;2022-12-22T12:55:21;38.3;30.4;19.4
53698;PMS7003;39591;53.952;27.612;2022-12-22T12:59:44;39.8;31.9;21.5
53698;PMS7003;39591;53.952;27.612;2022-12-22T13:04:59;40.8;33.8;21.8
53698;PMS7003;39591;53.952;27.612;2022-12-22T13:10:17;41;34.2;22.7
53698;PMS7003;39591;53.952;27.612;2022-12-22T13:14:55;39.5;32.4;22.3
53698;PMS7003;39591;53.952;27.612;2022-12-22T13:20:10;44.6;35.2;23
53698;PMS7003;39591;53.952;27.612;2022-12-22T13:25:00;42.1;33.9;21.7
53698;PMS7003;39591;53.952;27.612;2022-12-22T13:29:26;43.8;35.5;23.1
53698;PMS7003;39591;53.952;27.612;2022-12-22T13:34:36;42.3;34;23.1
53698;PMS7003;39591;53.952;27.612;2022-12-22T13:40:18;45.2;36.8;23.9
53698;PMS7003;39591;53.952;27.612;2022-12-22T13:45:11;46.6;36.4;22.5
53698;PMS7003;39591;53.952;27.612;2022-12-22T13:49:23;47.9;37;24.2
53698;PMS7003;39591;53.952;27.612;2022-12-22T13:55:09;49.6;37.5;24.7
53698;PMS7003;39591;53.952;27.612;2022-12-22T13:59:57;46.5;36.4;23.8
53698;PMS7003;39591;53.952;27.612;2022-12-22T14:04:34;42;31.2;19.8
53698;PMS7003;39591;53.952;27.612;2022-12-22T14:10:09;46.7;36.4;24.2
53698;PMS7003;39591;53.952;27.612;2022-12-22T14:14:59;46.9;36.2;23.8
53698;PMS7003;39591;53.952;27.612;2022-12-22T14:19:35;42.1;35.1;23.7
53698;PMS7003;39591;53.952;27.612;2022-12-22T14:24:34;45.8;35.5;22.8
53698;PMS7003;39591;53.952;27.612;2022-12-22T14:29:35;43.7;35.2;22.9
53698;PMS7003;39591;53.952;27.612;2022-12-22T14:35:27;44.5;35.2;23.6
53698;PMS7003;39591;53.952;27.612;2022-12-22T14:39:24;35.7;27.9;17.6
53698;PMS7003;39591;53.952;27.612;2022-12-22T14:44:47;44.7;36.7;24.2
53698;PMS7003;39591;53.952;27.612;2022-12-22T14:50:00;45.8;35.9;22.6
53698;PMS7003;39591;53.952;27.612;2022-12-22T14:54:33;43.6;34.3;22.4
53698;PMS7003;39591;53.952;27.612;2022-12-22T15:00:25;39.7;31.9;21.4
53698;PMS7003;39591;53.952;27.612;2022-12-22T15:05:14;46;36.4;23.5
53698;PMS7003;39591;53.952;27.612;2022-12-22T15:09:24;44;35.5;22.6
53698;PMS7003;39591;53.952;27.612;2022-12-22T15:14:45;48.5;38.1;24.6
53698;PMS7003;39591;53.952;27.612;2022-12-22T15:19:45;48.7;38.3;24.9
53698;PMS7003;39591;53.952;27.612;2022-12-22T15:24:57;44.6;34.4;22
53698;PMS7003;39591;53.952;27.612;2022-12-22T15:29:33;44.7;34.2;21.4
53698;PMS7003;39591;53.952;27.612;2022-12-22T15:34:59;43.8;33.5;22.7
53698;PMS7003;39591;53.952;27.612;2022-12-22T15:39:57;41.2;33.3;21
53698;PMS7003;39591;53.952;27.612;2022-12-22T15:45:10;46.6;36.2;23.9
53698;PMS7003;39591;53.952;27.612;2022-12-22T15:50:09;47.5;37.9;24.3
53698;PMS7003;39591;53.952;27.612;2022-12-22T15:55:08;50.4;37.6;24.8
53698;PMS7003;39591;53.952;27.612;2022-12-22T15:59:24;49.7;37.8;24.5
53698;PMS7003;39591;53.952;27.612;2022-12-22T16:04:43;44.4;35.3;23.2
53698;PMS7003;39591;53.952;27.612;2022-12-22T16:09:40;49.4;38.4;24.7
53698;PMS7003;39591;53.952;27.612;2022-12-22T16:14:58;48.2;38.6;24.8
53698;PMS7003;39591;53.952;27.612;2022-12-22T16:19:33;51.1;38.1;23.9
53698;PMS7003;39591;53.952;27.612;2022-12-22T16:24:59;45.9;35.6;22.6
53698;PMS7003;39591;53.952;27.612;2022-12-22T16:29:57;45.5;35;22.1
53698;PMS7003;39591;53.952;27.612;2022-12-22T16:34:35;47.2;37.4;25.1
53698;PMS7003;39591;53.952;27.612;2022-12-22T16:40:08;44.8;36.2;24.3
53698;PMS7003;39591;53.952;27.612;2022-12-22T16:44:57;47.3;36.9;24.7
53698;PMS7003;39591;53.952;27.612;2022-12-22T16:49:58;38;30.3;20.3
53698;PMS7003;39591;53.952;27.612;2022-12-22T16:54:33;38.4;31.8;20.8
53698;PMS7003;39591;53.952;27.612;2022-12-22T16:59:23;32.7;24.9;15.2
53698;PMS7003;39591;53.952;27.612;2022-12-22T17:05:13;38;29.1;20.1
53698;PMS7003;39591;53.952;27.612;2022-12-22T17:09:38;37.1;30.7;21.4
53698;PMS7003;39591;53.952;27.612;2022-12-22T17:14:43;32.5;26.7;18.5
53698;PMS7003;39591;53.952;27.612;2022-12-22T17:20:11;33.7;26.5;19
53698;PMS7003;39591;53.952;27.612;2022-12-22T17:24:23;32.9;27.5;20.2
53698;PMS7003;39591;53.952;27.612;2022-12-22T17:30:13;34.5;28.6;20.2
53698;PMS7003;39591;53.952;27.612;2022-12-22T17:34:59;32.9;26.8;18.5
53698;PMS7003;39591;53.952;27.612;2022-12-22T17:39:58;33.3;28.1;19.6
53698;PMS7003;39591;53.952;27.612;2022-12-22T17:44:24;25.7;20.6;12.6
53698;PMS7003;39591;53.952;27.612;2022-12-22T17:49:33;32.8;27.3;18.9
53698;PMS7003;39591;53.952;27.612;2022-12-22T17:55:16;32.1;27.1;19.1
53698;PMS7003;39591;53.952;27.612;2022-12-22T17:59:33;32.7;26.7;18.8
53698;PMS7003;39591;53.952;27.612;2022-12-22T18:05:10;35;27.5;19.2
53698;PMS7003;39591;53.952;27.612;2022-12-22T18:09:57;36.7;27.9;18.2
53698;PMS7003;39591;53.952;27.612;2022-12-22T18:14:46;32.5;25.9;18.3
53698;PMS7003;39591;53.952;27.612;2022-12-22T18:20:08;32.1;25.4;17.6
53698;PMS7003;39591;53.952;27.612;2022-12-22T18:24:57;31.7;25.4;17.6
53698;PMS7003;39591;53.952;27.612;2022-12-22T18:29:55;34.1;27.5;17.5
53698;PMS7003;39591;53.952;27.612;2022-12-22T18:34:23;34.2;26.4;18.4
53698;PMS7003;39591;53.952;27.612;2022-12-22T18:39:44;31;24.2;16.3
53698;PMS7003;39591;53.952;27.612;2022-12-22T18:45:12;39.4;30.1;19.7
53698;PMS7003;39591;53.952;27.612;2022-12-22T18:49:24;35.6;29.9;20.8
53698;PMS7003;39591;53.952;27.612;2022-12-22T18:54:58;37;31;21.6
53698;PMS7003;39591;53.952;27.612;2022-12-22T18:59:47;37.8;28.9;19.5
53698;PMS7003;39591;53.952;27.612;2022-12-22T19:04:31;39.5;31.1;20.6
53698;PMS7003;39591;53.952;27.612;2022-12-22T19:10:06;40.7;30.5;19.7
53698;PMS7003;39591;53.952;27.612;2022-12-22T19:15:00;33.6;27.3;18.1
53698;PMS7003;39591;53.952;27.612;2022-12-22T19:19:57;40.2;31.6;21.3
53698;PMS7003;39591;53.952;27.612;2022-12-22T19:24:46;47.5;34.1;22.3
53698;PMS7003;39591;53.952;27.612;2022-12-22T19:29:23;38.7;30;19.9
53698;PMS7003;39591;53.952;27.612;2022-12-22T19:34:57;39.6;31;20.8
53698;PMS7003;39591;53.952;27.612;2022-12-22T19:39:31;39;28.8;19.1
53698;PMS7003;39591;53.952;27.612;2022-12-22T19:44:44;38.8;29;17.7
53698;PMS7003;39591;53.952;27.612;2022-12-22T19:49:55;31.5;24.8;16.1
53698;PMS7003;39591;53.952;27.612;2022-12-22T19:54:23;37.9;27.8;17.9
53698;PMS7003;39591;53.952;27.612;2022-12-22T20:00:13;41.1;30;18.6
53698;PMS7003;39591;53.952;27.612;2022-12-22T20:04:25;37.2;27;17.4
53698;PMS7003;39591;53.952;27.612;2022-12-22T20:09:58;39.1;27.2;17.1
53698;PMS7003;39591;53.952;27.612;2022-12-22T20:14:33;41.5;30.6;19.9
53698;PMS7003;39591;53.952;27.612;2022-12-22T20:19:35;37.6;26.3;17.3
53698;PMS7003;39591;53.952;27.612;2022-12-22T20:25:12;32.3;26.2;17.7
53698;PMS7003;39591;53.952;27.612;2022-12-22T20:29:33;39.3;29.3;18.1
53698;PMS7003;39591;53.952;27.612;2022-12-22T20:34:33;37.1;28;17.9
53698;PMS7003;39591;53.952;27.612;2022-12-22T20:39:57;31.1;24.8;16.7
53698;PMS7003;39591;53.952;27.612;2022-12-22T20:44:33;32.1;24.1;15.6
53698;PMS7003;39591;53.952;27.612;2022-12-22T20:50:02;33.1;27;17.9
53698;PMS7003;39591;53.952;27.612;2022-12-22T20:55:02;32.9;27;18.1
53698;PMS7003;39591;53.952;27.612;2022-12-22T20:59:45;31.9;24.2;14.7
53698;PMS7003;39591;53.952;27.612;2022-12-22T21:04:46;31.3;24.4;16.6
53698;PMS7003;39591;53.952;27.612;2022-12-22T21:09:45;31.1;23.1;15.1
53698;PMS7003;39591;53.952;27.612;2022-12-22T21:15:14;31.8;25.9;18.2
53698;PMS7003;39591;53.952;27.612;2022-12-22T21:19:49;26.8;21.9;14.5
53698;PMS7003;39591;53.952;27.612;2022-12-22T21:24:44;29.7;24.1;17.2
53698;PMS7003;39591;53.952;27.612;2022-12-22T21:29:35;28.1;23.7;16.5
53698;PMS7003;39591;53.952;27.612;2022-12-22T21:34:49;29;24.6;16.4
53698;PMS7003;39591;53.952;27.612;2022-12-22T21:40:17;28;22.2;14.4
53698;PMS7003;39591;53.952;27.612;2022-12-22T21:44:26;29.1;23.6;15.6
53698;PMS7003;39591;53.952;27.612;2022-12-22T21:49:59;29.8;23.9;16.9
53698;PMS7003;39591;53.952;27.612;2022-12-22T21:54:33;27.2;22.5;15.5
53698;PMS7003;39591;53.952;27.612;2022-12-22T21:59:35;27.2;22.2;14.9
53698;PMS7003;39591;53.952;27.612;2022-12-22T22:05:12;29.2;22.8;15.9
53698;PMS7003;39591;53.952;27.612;2022-12-22T22:09:31;26.8;21.7;15.9
53698;PMS7003;39591;53.952;27.612;2022-12-22T22:14:24;28;22.9;16.9
53698;PMS7003;39591;53.952;27.612;2022-12-22T22:19:56;30.6;24;16.6
53698;PMS7003;39591;53.952;27.612;2022-12-22T22:24:24;30.9;24.6;17
53698;PMS7003;39591;53.952;27.612;2022-12-22T22:30:10;29.7;23.5;16.5
53698;PMS7003;39591;53.952;27.612;2022-12-22T22:34:58;27.7;22.7;15.5
53698;PMS7003;39591;53.952;27.612;2022-12-22T22:39:52;28.4;22.2;15.1
53698;PMS7003;39591;53.952;27.612;2022-12-22T22:44:37;29.1;21.9;14.3
53698;PMS7003;39591;53.952;27.612;2022-12-22T22:49:24;27.7;21.2;14.5
53698;PMS7003;39591;53.952;27.612;2022-12-22T22:55:04;29.2;22.3;14.4
53698;PMS7003;39591;53.952;27.612;2022-12-22T22:59:29;30.8;22.7;13.8
53698;PMS7003;39591;53.952;27.612;2022-12-22T23:04:32;29.5;21.4;14.5
53698;PMS7003;39591;53.952;27.612;2022-12-22T23:09:26;25.2;20.1;13.7
53698;PMS7003;39591;53.952;27.612;2022-12-22T23:14:24;23.8;15.9;11.8
53698;PMS7003;39591;53.952;27.612;2022-12-22T23:19:56;26.9;20.4;13.1
53698;PMS7003;39591;53.952;27.612;2022-12-22T23:24:38;28;20;13.4
53698;PMS7003;39591;53.952;27.612;2022-12-22T23:29:26;23.5;16.9;12.1
53698;PMS7003;39591;53.952;27.612;2022-12-22T23:34:54;23.2;15.9;10.3
53698;PMS7003;39591;53.952;27.612;2022-12-22T23:39:34;32.8;23.3;15.4
53698;PMS7003;39591;53.952;27.612;2022-12-22T23:44:36;27.7;21.9;14.4
53698;PMS7003;39591;53.952;27.612;2022-12-22T23:49:36;28.1;22.6;15.8
53698;PMS7003;39591;53.952;27.612;2022-12-22T23:54:34;28.3;21;14.1
53698;PMS7003;39591;53.952;27.612;2022-12-22T23:59:56;28.9;22.2;15.1
